Terminal Aerodrome Forecast
Issued by NWS Charleston, WV

Current Version | Previous Version | Graphics & Text | Print | Product List | Glossary On
Versions: 1 2 3 4 5 6 7 8 9 10 11 12 13 14 15 16 17 18 19 20 21 22 23 24 25 26 27 28
000
FTUS41 KRLX 210300 AAB
TAFEKN
TAF AMD
KEKN 210335Z 2104/2124 00000KT 6SM BR FEW006 BKN045 OVC060
     FM210400 VRB03KT 5SM BR SCT080
     FM210500 00000KT 2SM BR SCT070
     FM210630 00000KT 1/2SM FG OVC001
     FM211230 00000KT 3SM BR SCT002 SCT070
     FM211500 VRB03KT P6SM SCT050
     FM212000 14004KT P6SM VCSH BKN050=

USA.gov is the U.S. government's official web portal to all federal, state and local government web resources and services.